sensor_id;sensor_type;location;lat;lon;timestamp;temperature;humidity
23495;DHT22;26107;50.832;2.950;2022-11-20T00:05:10;7.40;99.90
23495;DHT22;26107;50.832;2.950;2022-11-20T00:20:10;6.90;99.90
23495;DHT22;26107;50.832;2.950;2022-11-20T00:35:11;7.40;99.90
23495;DHT22;26107;50.832;2.950;2022-11-20T00:50:12;7.70;99.90
23495;DHT22;26107;50.832;2.950;2022-11-20T01:05:12;6.70;99.90
23495;DHT22;26107;50.832;2.950;2022-11-20T01:20:13;6.50;99.90
23495;DHT22;26107;50.832;2.950;2022-11-20T01:35:13;6.60;99.90
23495;DHT22;26107;50.832;2.950;2022-11-20T02:20:29;7.50;99.90
23495;DHT22;26107;50.832;2.950;2022-11-20T02:50:31;7.30;99.90
23495;DHT22;26107;50.832;2.950;2022-11-20T03:05:31;7.40;99.90
23495;DHT22;26107;50.832;2.950;2022-11-20T03:20:33;7.30;99.90
23495;DHT22;26107;50.832;2.950;2022-11-20T03:35:34;7.40;99.90
23495;DHT22;26107;50.832;2.950;2022-11-20T03:50:34;7.30;99.90
23495;DHT22;26107;50.832;2.950;2022-11-20T04:05:34;7.40;99.90
23495;DHT22;26107;50.832;2.950;2022-11-20T04:20:35;7.30;99.90
23495;DHT22;26107;50.832;2.950;2022-11-20T04:35:36;7.40;99.90
23495;DHT22;26107;50.832;2.950;2022-11-20T04:50:39;7.30;99.90
23495;DHT22;26107;50.832;2.950;2022-11-20T05:05:40;7.50;99.90
23495;DHT22;26107;50.832;2.950;2022-11-20T05:20:40;7.60;99.90
23495;DHT22;26107;50.832;2.950;2022-11-20T05:35:40;7.50;99.90
23495;DHT22;26107;50.832;2.950;2022-11-20T05:50:41;7.50;99.90
23495;DHT22;26107;50.832;2.950;2022-11-20T06:05:41;7.30;99.90
23495;DHT22;26107;50.832;2.950;2022-11-20T06:20:42;7.30;99.90
23495;DHT22;26107;50.832;2.950;2022-11-20T06:35:42;7.40;99.90
23495;DHT22;26107;50.832;2.950;2022-11-20T06:50:43;7.40;99.90
23495;DHT22;26107;50.832;2.950;2022-11-20T07:05:43;7.60;99.90
23495;DHT22;26107;50.832;2.950;2022-11-20T07:20:45;7.70;99.90
23495;DHT22;26107;50.832;2.950;2022-11-20T07:35:45;7.80;99.90
23495;DHT22;26107;50.832;2.950;2022-11-20T07:50:46;7.90;99.90
23495;DHT22;26107;50.832;2.950;2022-11-20T08:05:46;8.00;99.90
23495;DHT22;26107;50.832;2.950;2022-11-20T08:20:47;8.10;99.90
23495;DHT22;26107;50.832;2.950;2022-11-20T08:35:47;8.10;99.90
23495;DHT22;26107;50.832;2.950;2022-11-20T08:50:48;8.20;99.90
23495;DHT22;26107;50.832;2.950;2022-11-20T09:05:48;8.30;99.90
23495;DHT22;26107;50.832;2.950;2022-11-20T09:20:49;8.30;99.90
23495;DHT22;26107;50.832;2.950;2022-11-20T09:35:49;8.10;99.90
23495;DHT22;26107;50.832;2.950;2022-11-20T10:05:56;8.20;99.90
23495;DHT22;26107;50.832;2.950;2022-11-20T10:36:21;8.40;99.90
23495;DHT22;26107;50.832;2.950;2022-11-20T11:06:37;8.60;99.90
23495;DHT22;26107;50.832;2.950;2022-11-20T11:21:38;8.40;99.90
23495;DHT22;26107;50.832;2.950;2022-11-20T11:36:56;8.30;99.90
23495;DHT22;26107;50.832;2.950;2022-11-20T11:52:16;8.70;99.90
23495;DHT22;26107;50.832;2.950;2022-11-20T12:22:51;8.50;99.90
23495;DHT22;26107;50.832;2.950;2022-11-20T12:53:22;8.60;99.90
23495;DHT22;26107;50.832;2.950;2022-11-20T13:08:35;8.60;99.90
23495;DHT22;26107;50.832;2.950;2022-11-20T13:23:36;9.10;99.90
23495;DHT22;26107;50.832;2.950;2022-11-20T13:38:49;10.20;99.90
23495;DHT22;26107;50.832;2.950;2022-11-20T13:54:01;10.70;99.90
23495;DHT22;26107;50.832;2.950;2022-11-20T14:09:05;10.50;99.90
23495;DHT22;26107;50.832;2.950;2022-11-20T14:24:06;11.00;99.90
23495;DHT22;26107;50.832;2.950;2022-11-20T14:39:08;13.50;99.90
23495;DHT22;26107;50.832;2.950;2022-11-20T14:54:16;13.60;99.90
23495;DHT22;26107;50.832;2.950;2022-11-20T15:09:17;13.70;99.90
23495;DHT22;26107;50.832;2.950;2022-11-20T15:24:18;13.30;99.90
23495;DHT22;26107;50.832;2.950;2022-11-20T15:39:19;12.20;99.90
23495;DHT22;26107;50.832;2.950;2022-11-20T15:54:20;10.90;99.90
23495;DHT22;26107;50.832;2.950;2022-11-20T16:09:21;10.50;99.90
23495;DHT22;26107;50.832;2.950;2022-11-20T16:24:22;10.10;99.90
23495;DHT22;26107;50.832;2.950;2022-11-20T16:39:22;10.00;99.90
23495;DHT22;26107;50.832;2.950;2022-11-20T16:54:24;9.90;99.90
23495;DHT22;26107;50.832;2.950;2022-11-20T17:09:25;9.40;99.90
23495;DHT22;26107;50.832;2.950;2022-11-20T17:24:26;9.20;99.90
23495;DHT22;26107;50.832;2.950;2022-11-20T17:39:26;9.30;99.90
23495;DHT22;26107;50.832;2.950;2022-11-20T17:54:27;9.20;99.90
23495;DHT22;26107;50.832;2.950;2022-11-20T18:09:27;9.10;99.90
23495;DHT22;26107;50.832;2.950;2022-11-20T18:24:27;9.00;99.90
23495;DHT22;26107;50.832;2.950;2022-11-20T18:39:28;8.80;99.90
23495;DHT22;26107;50.832;2.950;2022-11-20T18:54:29;8.80;99.90
23495;DHT22;26107;50.832;2.950;2022-11-20T19:09:29;9.00;99.90
23495;DHT22;26107;50.832;2.950;2022-11-20T19:24:30;8.80;99.90
23495;DHT22;26107;50.832;2.950;2022-11-20T19:39:30;8.30;99.90
23495;DHT22;26107;50.832;2.950;2022-11-20T19:54:31;8.50;99.90
23495;DHT22;26107;50.832;2.950;2022-11-20T20:09:31;8.50;99.90
23495;DHT22;26107;50.832;2.950;2022-11-20T20:24:33;8.70;99.90
23495;DHT22;26107;50.832;2.950;2022-11-20T20:39:33;8.70;99.90
23495;DHT22;26107;50.832;2.950;2022-11-20T20:54:34;8.60;99.90
23495;DHT22;26107;50.832;2.950;2022-11-20T21:09:35;8.30;99.90
23495;DHT22;26107;50.832;2.950;2022-11-20T21:24:35;8.00;99.90
23495;DHT22;26107;50.832;2.950;2022-11-20T21:39:36;8.20;99.90
23495;DHT22;26107;50.832;2.950;2022-11-20T21:54:49;8.10;99.90
23495;DHT22;26107;50.832;2.950;2022-11-20T22:09:50;7.90;99.90
23495;DHT22;26107;50.832;2.950;2022-11-20T22:24:50;8.00;99.90
23495;DHT22;26107;50.832;2.950;2022-11-20T22:39:51;7.90;99.90
23495;DHT22;26107;50.832;2.950;2022-11-20T22:54:51;8.00;99.90
23495;DHT22;26107;50.832;2.950;2022-11-20T23:09:52;8.10;99.90
23495;DHT22;26107;50.832;2.950;2022-11-20T23:24:52;8.20;99.90
23495;DHT22;26107;50.832;2.950;2022-11-20T23:39:52;8.30;99.90
23495;DHT22;26107;50.832;2.950;2022-11-20T23:54:53;8.20;99.90
